Terminal Aerodrome Forecast
Issued by NWS Cleveland, OH

Home | Current Version | Previous Version | Graphics & Text | Print | Product List | Glossary On
Versions: 1 2 3 4 5 6 7 8 9 10 11 12 13
000
FTUS41 KCLE 311131
TAFERI
TAF
KERI 311131Z 3112/0112 19005KT P6SM SCT150
     FM311600 23005KT P6SM SCT050
     FM311800 28008KT P6SM FEW050
     FM010000 19005KT P6SM SKC=

USA.gov is the U.S. government's official web portal to all federal, state and local government web resources and services.